Weather at Eastern WV Regional Airport/Shepherd Field

Public forecast

Using degrees Fahrenheit for public forecast. Weather courtesy of forecast.io.

Current aviation weather report (METAR) for Eastern WV Regional Airport/Shepherd Field

Retrieved 2020/10/01 16:53 UTC (46 minutes ago):

KMRB 011653Z 33005KT 10SM OVC049 19/09 A2996 RMK AO2 SLP143 T01940089

Aviation forecast (TAF) for Eastern WV Regional Airport/Shepherd Field

Retrieved 2020/10/01 12:42 UTC (5 hours ago):

TAF KMRB 011139Z 0112/0212 11003KT P6SM SKC FM011400 29006KT P6SM FEW120 FM020200 00000KT P6SM BKN070 FM021000 VRB03KT P6SM SCT060